Terminal Aerodrome Forecast
Issued by NWS

Home | Current Version | Previous Version | Text Only | Print | Product List | Glossary On
Versions: 1 2 3 4 5 6 7 8 9 10 11 12 13 14
000
FTUS43 KDTX 031125
TAFMBS
TAF
KMBS 031125Z 0312/0412 23006KT P6SM SCT250
     FM031500 23015G22KT P6SM BKN100
     FM040100 20010KT P6SM SCT080 BKN250
     FM040800 21011KT P6SM BKN070 OVC100=

USA.gov is the U.S. government's official web portal to all federal, state and local government web resources and services.